createdAt,value
2018-08-28T00:01:57.780Z,9.20
2018-08-28T00:06:05.988Z,10.30
2018-08-28T00:10:14.137Z,7.33
2018-08-28T00:14:22.291Z,9.20
2018-08-28T00:18:30.428Z,10.33
2018-08-28T00:22:38.580Z,10.50
2018-08-28T00:26:46.748Z,7.43
2018-08-28T00:30:54.898Z,5.80
2018-08-28T00:35:03.057Z,9.48
2018-08-28T00:39:11.191Z,6.47
2018-08-28T00:43:19.347Z,8.70
2018-08-28T00:47:27.503Z,8.23
2018-08-28T00:51:35.693Z,6.47
2018-08-28T00:55:43.813Z,8.87
2018-08-28T00:59:51.919Z,5.77
2018-08-28T01:04:00.054Z,9.67
2018-08-28T01:08:08.184Z,8.90
2018-08-28T01:12:16.297Z,8.33
2018-08-28T01:16:24.420Z,8.20
2018-08-28T01:20:32.544Z,10.00
2018-08-28T01:24:40.676Z,7.37
2018-08-28T01:28:48.843Z,6.07
2018-08-28T01:32:57.005Z,7.20
2018-08-28T01:37:05.402Z,8.03
2018-08-28T01:41:13.496Z,11.40
2018-08-28T01:45:21.643Z,7.60
2018-08-28T01:49:29.787Z,9.20
2018-08-28T01:53:37.930Z,7.50
2018-08-28T01:57:46.091Z,9.93
2018-08-28T02:01:54.261Z,7.07
2018-08-28T02:06:02.412Z,6.33
2018-08-28T02:10:10.560Z,10.83
2018-08-28T02:14:18.700Z,9.13
2018-08-28T02:18:26.843Z,8.27
2018-08-28T02:22:35.024Z,8.30
2018-08-28T02:26:43.169Z,8.20
2018-08-28T02:30:51.324Z,6.70
2018-08-28T02:34:59.475Z,8.27
2018-08-28T02:39:09.016Z,10.73
2018-08-28T02:43:17.151Z,12.70
2018-08-28T02:47:25.301Z,10.50
2018-08-28T02:51:33.601Z,8.90
2018-08-28T02:55:41.748Z,7.27
2018-08-28T02:59:50.079Z,7.37
2018-08-28T03:03:58.232Z,8.90
2018-08-28T03:08:06.376Z,8.43
2018-08-28T03:12:14.538Z,7.47
2018-08-28T03:16:22.679Z,9.07
2018-08-28T03:20:30.820Z,7.40
2018-08-28T03:24:38.964Z,8.00
2018-08-28T03:28:47.099Z,5.93
2018-08-28T03:32:55.251Z,6.57
2018-08-28T03:37:03.425Z,7.20
2018-08-28T03:41:11.579Z,7.70
2018-08-28T03:45:19.737Z,8.43
2018-08-28T03:49:27.871Z,10.50
2018-08-28T03:53:36.019Z,9.20
2018-08-28T03:57:44.359Z,9.90
2018-08-28T04:01:52.521Z,8.90
2018-08-28T04:06:00.712Z,7.13
2018-08-28T04:10:08.860Z,8.53
2018-08-28T04:14:17.016Z,9.40
2018-08-28T04:18:25.173Z,8.23
2018-08-28T04:22:33.134Z,8.50
2018-08-28T04:26:41.236Z,6.87
2018-08-28T04:30:49.424Z,7.63
2018-08-28T04:34:57.572Z,8.23
2018-08-28T04:39:06.722Z,9.20
2018-08-28T04:43:14.867Z,10.27
2018-08-28T04:47:23.152Z,10.85
2018-08-28T04:51:31.300Z,9.57
2018-08-28T04:55:39.460Z,8.30
2018-08-28T04:59:47.592Z,6.80
2018-08-28T05:03:55.738Z,7.50
2018-08-28T05:08:03.928Z,8.67
2018-08-28T05:12:12.303Z,8.03
2018-08-28T05:16:20.460Z,6.80
2018-08-28T05:20:28.612Z,8.30
2018-08-28T05:24:36.763Z,10.87
2018-08-28T05:28:44.887Z,9.40
2018-08-28T05:32:53.027Z,11.47
2018-08-28T05:37:01.172Z,7.27
2018-08-28T05:41:09.327Z,7.30
2018-08-28T05:45:17.480Z,6.60
2018-08-28T05:49:25.659Z,10.03
2018-08-28T05:53:33.763Z,9.50
2018-08-28T05:57:41.911Z,10.37
2018-08-28T06:01:50.055Z,8.90
2018-08-28T06:05:58.226Z,7.30
2018-08-28T06:10:06.393Z,11.03
2018-08-28T06:14:14.539Z,8.67
2018-08-28T06:18:22.901Z,9.70
2018-08-28T06:22:31.043Z,10.57
2018-08-28T06:26:39.257Z,9.37
2018-08-28T06:30:47.160Z,6.00
2018-08-28T06:34:55.360Z,8.90
2018-08-28T06:39:04.229Z,10.47
2018-08-28T06:43:12.371Z,8.03
2018-08-28T06:47:20.528Z,9.57
2018-08-28T06:51:28.716Z,8.80
2018-08-28T06:55:36.856Z,11.00
2018-08-28T06:59:45.007Z,7.73
2018-08-28T07:03:53.166Z,8.63
2018-08-28T07:08:01.386Z,6.40
2018-08-28T07:12:09.465Z,8.90
2018-08-28T07:16:17.628Z,10.13
2018-08-28T07:20:25.760Z,8.40
2018-08-28T07:24:33.918Z,11.77
2018-08-28T07:28:42.095Z,11.50
2018-08-28T07:32:50.243Z,6.90
2018-08-28T07:36:58.400Z,8.03
2018-08-28T07:41:06.304Z,7.60
2018-08-28T07:45:14.456Z,10.07
2018-08-28T07:49:22.624Z,8.03
2018-08-28T07:53:30.772Z,9.10
2018-08-28T07:57:38.936Z,10.17
2018-08-28T08:01:47.084Z,6.50
2018-08-28T08:05:56.111Z,6.80
2018-08-28T08:10:04.528Z,6.20
2018-08-28T08:14:12.691Z,7.67
2018-08-28T08:18:20.868Z,9.60
2018-08-28T08:22:29.022Z,9.20
2018-08-28T08:26:37.152Z,7.07
2018-08-28T08:30:45.308Z,10.70
2018-08-28T08:34:53.472Z,6.87
2018-08-28T08:39:01.628Z,11.73
2018-08-28T08:43:09.763Z,7.50
2018-08-28T08:47:17.891Z,11.47
2018-08-28T08:51:26.060Z,9.50
2018-08-28T08:55:34.217Z,7.30
2018-08-28T08:59:42.355Z,7.63
2018-08-28T09:03:50.505Z,6.13
2018-08-28T09:07:58.652Z,8.20
2018-08-28T09:12:06.846Z,10.63
2018-08-28T09:16:14.931Z,9.20
2018-08-28T09:20:23.089Z,6.97
2018-08-28T09:24:31.252Z,7.28
2018-08-28T09:28:39.400Z,6.60
2018-08-28T09:32:47.540Z,8.30
2018-08-28T09:36:55.705Z,9.37
2018-08-28T09:41:03.883Z,8.30
2018-08-28T09:45:12.019Z,7.50
2018-08-28T09:49:20.188Z,6.60
2018-08-28T09:53:28.428Z,7.63
2018-08-28T09:57:36.591Z,6.17
2018-08-28T10:01:45.982Z,5.87
2018-08-28T10:05:54.140Z,5.53
2018-08-28T10:10:02.297Z,6.83
2018-08-28T10:14:11.324Z,6.90
2018-08-28T10:18:19.483Z,9.40
2018-08-28T10:22:27.644Z,9.67
2018-08-28T10:26:35.813Z,5.70
2018-08-28T10:30:43.968Z,8.27
2018-08-28T10:34:52.159Z,10.57
2018-08-28T10:39:00.307Z,8.73
2018-08-28T10:43:08.505Z,7.22
2018-08-28T10:47:16.651Z,7.73
2018-08-28T10:51:24.855Z,7.50
2018-08-28T10:55:33.121Z,12.50
2018-08-28T10:59:41.288Z,5.87
2018-08-28T11:03:49.435Z,10.07
2018-08-28T11:07:57.596Z,5.40
2018-08-28T11:12:05.747Z,7.00
2018-08-28T11:16:13.972Z,9.57
2018-08-28T11:20:22.057Z,6.53
2018-08-28T11:24:30.205Z,6.30
2018-08-28T11:28:38.348Z,6.17
2018-08-28T11:32:46.497Z,6.53
2018-08-28T11:36:55.183Z,6.47
2018-08-28T11:41:03.325Z,5.10
2018-08-28T11:45:11.481Z,5.50
2018-08-28T11:49:19.632Z,5.10
2018-08-28T11:53:27.794Z,6.13
2018-08-28T11:57:35.936Z,7.50
2018-08-28T12:01:44.103Z,8.83
2018-08-28T12:05:52.265Z,6.73
2018-08-28T12:10:00.440Z,5.67
2018-08-28T12:14:08.620Z,10.10
2018-08-28T12:18:16.768Z,8.07
2018-08-28T12:22:24.916Z,6.30
2018-08-28T12:26:33.120Z,6.30
2018-08-28T12:30:41.201Z,5.83
2018-08-28T12:34:49.364Z,7.77
2018-08-28T12:38:57.663Z,6.50
2018-08-28T12:43:05.803Z,6.50
2018-08-28T12:47:13.961Z,5.93
2018-08-28T12:51:22.195Z,6.60
2018-08-28T12:55:30.268Z,8.20
2018-08-28T12:59:38.400Z,5.90
2018-08-28T13:03:46.552Z,7.20
2018-08-28T13:07:54.704Z,6.37
2018-08-28T13:12:02.867Z,7.00
2018-08-28T13:16:11.025Z,5.73
2018-08-28T13:20:19.168Z,6.33
2018-08-28T13:24:27.316Z,6.53
2018-08-28T13:28:35.456Z,5.80
2018-08-28T13:32:43.652Z,7.05
2018-08-28T13:36:51.783Z,6.67
2018-08-28T13:40:59.936Z,7.40
2018-08-28T13:45:08.232Z,5.90
2018-08-28T13:49:16.395Z,7.10
2018-08-28T13:53:24.535Z,7.17
2018-08-28T13:57:32.707Z,6.13
2018-08-28T14:01:40.879Z,7.10
2018-08-28T14:05:49.005Z,6.97
2018-08-28T14:09:57.148Z,6.70
2018-08-28T14:14:05.451Z,7.73
2018-08-28T14:18:13.452Z,7.17
2018-08-28T14:22:21.638Z,9.93
2018-08-28T14:26:29.739Z,5.00
2018-08-28T14:30:37.899Z,6.50
2018-08-28T14:34:46.039Z,7.83
2018-08-28T14:38:54.188Z,7.17
2018-08-28T14:43:02.346Z,10.37
2018-08-28T14:47:10.251Z,7.55
2018-08-28T14:51:18.405Z,7.60
2018-08-28T14:55:26.621Z,6.35
2018-08-28T14:59:34.763Z,7.80
2018-08-28T15:03:42.916Z,6.57
2018-08-28T15:07:51.048Z,7.27
2018-08-28T15:11:59.215Z,7.07
2018-08-28T15:16:07.379Z,6.30
2018-08-28T15:20:15.512Z,7.23
2018-08-28T15:24:23.660Z,6.87
2018-08-28T15:28:31.798Z,6.17
2018-08-28T15:32:40.040Z,10.90
2018-08-28T15:36:48.103Z,7.03
2018-08-28T15:40:56.277Z,10.73
2018-08-28T15:45:04.448Z,7.10
2018-08-28T15:49:12.608Z,8.60
2018-08-28T15:53:20.756Z,7.43
2018-08-28T15:57:28.920Z,10.10
2018-08-28T16:01:37.068Z,10.50
2018-08-28T16:05:45.218Z,9.10
2018-08-28T16:09:53.372Z,10.00
2018-08-28T16:14:01.516Z,11.93
2018-08-28T16:18:09.742Z,9.90
2018-08-28T16:22:22.376Z,7.50
2018-08-28T16:26:30.541Z,11.40
2018-08-28T16:30:38.692Z,8.80
2018-08-28T16:34:46.840Z,9.30
2018-08-28T16:38:54.988Z,8.70
2018-08-28T16:43:03.151Z,9.00
2018-08-28T16:47:11.288Z,6.40
2018-08-28T16:51:19.435Z,8.50
2018-08-28T16:55:27.576Z,8.93
2018-08-28T16:59:35.709Z,7.10
2018-08-28T17:03:43.863Z,10.10
2018-08-28T17:07:52.048Z,9.93
2018-08-28T17:12:00.220Z,10.90
2018-08-28T17:16:08.372Z,10.70
2018-08-28T17:20:16.524Z,9.47
2018-08-28T17:24:24.668Z,8.87
2018-08-28T17:28:32.821Z,12.57
2018-08-28T17:32:40.969Z,7.40
2018-08-28T17:36:49.136Z,9.90
2018-08-28T17:40:57.255Z,7.90
2018-08-28T17:45:05.409Z,7.30
2018-08-28T17:49:13.625Z,8.63
2018-08-28T17:53:21.713Z,9.67
2018-08-28T17:57:29.847Z,6.90
2018-08-28T18:01:38.000Z,8.53
2018-08-28T18:05:46.166Z,6.80
2018-08-28T18:09:54.351Z,7.43
2018-08-28T18:14:02.529Z,10.07
2018-08-28T18:18:10.676Z,12.70
2018-08-28T18:22:18.881Z,9.13
2018-08-28T18:26:26.979Z,8.73
2018-08-28T18:30:35.128Z,6.50
2018-08-28T18:34:43.363Z,11.43
2018-08-28T18:38:51.436Z,9.50
2018-08-28T18:42:59.581Z,9.50
2018-08-28T18:47:07.816Z,8.30
2018-08-28T18:51:15.892Z,9.53
2018-08-28T18:55:24.032Z,8.43
2018-08-28T18:59:32.176Z,10.40
2018-08-28T19:03:40.316Z,8.47
2018-08-28T19:07:48.479Z,12.30
2018-08-28T19:11:56.638Z,9.17
2018-08-28T19:16:04.788Z,11.53
2018-08-28T19:20:13.144Z,11.30
2018-08-28T19:24:21.896Z,9.63
2018-08-28T19:28:30.219Z,8.73
2018-08-28T19:32:38.350Z,11.00
2018-08-28T19:36:46.495Z,12.47
2018-08-28T19:40:54.665Z,11.10
2018-08-28T19:45:02.801Z,12.17
2018-08-28T19:49:10.956Z,12.73
2018-08-28T19:53:19.105Z,8.43
2018-08-28T19:57:27.426Z,10.77
2018-08-28T20:01:35.582Z,9.90
2018-08-28T20:05:43.736Z,9.83
2018-08-28T20:09:51.915Z,11.53
2018-08-28T20:14:00.059Z,11.93
2018-08-28T20:18:08.527Z,14.00
2018-08-28T20:22:16.744Z,11.40
2018-08-28T20:26:24.900Z,11.20
2018-08-28T20:30:33.368Z,14.20
2018-08-28T20:34:41.603Z,9.83
2018-08-28T20:38:49.867Z,12.67
2018-08-28T20:42:58.020Z,15.17
2018-08-28T20:47:06.349Z,12.20
2018-08-28T20:51:15.065Z,10.77
2018-08-28T20:55:23.313Z,11.00
2018-08-28T20:59:31.496Z,17.43
2018-08-28T21:03:39.724Z,18.90
2018-08-28T21:07:47.873Z,25.27
2018-08-28T21:11:56.014Z,19.43
2018-08-28T21:16:04.176Z,37.10
2018-08-28T21:20:12.311Z,30.17
2018-08-28T21:24:20.459Z,28.77
2018-08-28T21:28:28.612Z,65.37
2018-08-28T21:32:37.148Z,50.73
2018-08-28T21:36:45.292Z,11.20
2018-08-28T21:40:53.440Z,47.37
2018-08-28T21:45:01.602Z,30.53
2018-08-28T21:49:09.875Z,11.90
2018-08-28T21:53:18.021Z,20.10
2018-08-28T21:57:26.171Z,34.47
2018-08-28T22:01:34.319Z,11.57
2018-08-28T22:05:42.473Z,47.67
2018-08-28T22:09:50.617Z,45.58
2018-08-28T22:13:58.768Z,42.23
2018-08-28T22:18:06.912Z,53.00
2018-08-28T22:22:15.031Z,25.87
2018-08-28T22:26:23.183Z,96.37
2018-08-28T22:30:31.314Z,66.50
2018-08-28T22:34:39.441Z,53.73
2018-08-28T22:38:47.557Z,23.57
2018-08-28T22:42:55.663Z,26.93
2018-08-28T22:47:03.785Z,12.50
2018-08-28T22:51:12.719Z,23.18
2018-08-28T22:55:20.838Z,22.37
2018-08-28T22:59:28.954Z,35.57
2018-08-28T23:03:37.076Z,20.77
2018-08-28T23:07:45.204Z,13.67
2018-08-28T23:11:53.321Z,13.70
2018-08-28T23:16:01.438Z,14.63
2018-08-28T23:20:09.547Z,11.80
2018-08-28T23:24:17.655Z,10.50
2018-08-28T23:28:25.782Z,13.53
2018-08-28T23:32:33.878Z,12.13
2018-08-28T23:36:41.987Z,10.40
2018-08-28T23:40:50.104Z,11.70
2018-08-28T23:44:58.256Z,10.80
2018-08-28T23:49:06.389Z,16.83
2018-08-28T23:53:14.500Z,14.43
2018-08-28T23:57:22.616Z,11.80
